Terminal Aerodrome Forecast
Issued by NWS

Home | Current Version | Previous Version | Text Only | Print | Product List | Glossary Off
Versions: 1 2 3 4 5 6 7 8 9 10 11 12 13 14 15 16 17 18 19 20 21 22

920
FTUS43 KOAX 242331
TAFCDR
TAF
KCDR 242331Z 2500/2524 09008KT P6SM BKN070
     FM250500 09008KT P6SM -RA OVC025
     FM251300 03013G21KT 3SM -RA OVC008=

USA.gov is the U.S. government's official web portal to all federal, state and local government web resources and services.